Time;durP1;ratioP1;P1;durP2;ratioP2;P2;SDS_P1;SDS_P2;PMS_P1;PMS_P2;Temp;Humidity;BMP_temperature;BMP_pressure;BME280_temperature;BME280_humidity;BME280_pressure;Samples;Min_cycle;Max_cycle;Signal;HPM_P1;HPM_P2
2022/07/10 00:02:07;;;;;;;8.83;6.28;;;;;;;16.30;100.00;99894.90;1692116;84;21564;-45
2022/07/10 00:04:34;;;;;;;8.08;5.87;;;;;;;16.27;100.00;99892.89;1692587;83;20961;-45
2022/07/10 00:07:01;;;;;;;11.30;6.50;;;;;;;16.25;100.00;99905.19;1700137;83;20959;-45
2022/07/10 00:09:29;;;;;;;8.70;6.62;;;;;;;16.20;100.00;99906.27;1667864;84;20964;-46
2022/07/10 00:11:57;;;;;;;6.90;6.20;;;;;;;16.18;100.00;99909.87;1696475;83;22187;-45
2022/07/10 00:14:24;;;;;;;12.47;6.25;;;;;;;16.14;100.00;99910.95;1686076;83;21068;-46
2022/07/10 00:16:52;;;;;;;13.30;6.95;;;;;;;16.11;100.00;99897.58;1692993;83;21031;-45
2022/07/10 00:19:19;;;;;;;10.03;6.92;;;;;;;16.10;100.00;99903.72;1702567;83;20932;-45
2022/07/10 00:21:45;;;;;;;8.55;6.60;;;;;;;16.09;100.00;99902.03;1691556;83;21118;-45
2022/07/10 00:24:12;;;;;;;10.43;6.85;;;;;;;16.10;100.00;99899.81;1693494;83;21434;-45
2022/07/10 00:26:39;;;;;;;9.85;6.40;;;;;;;16.09;100.00;99892.45;1690086;83;20968;-44
2022/07/10 00:29:07;;;;;;;11.00;6.28;;;;;;;16.09;100.00;99898.12;1694271;83;20999;-44
2022/07/10 00:31:34;;;;;;;9.48;6.08;;;;;;;16.08;100.00;99902.52;1671826;84;20997;-45
2022/07/10 00:34:01;;;;;;;7.72;5.90;;;;;;;16.06;100.00;99890.00;1691114;83;21035;-45
2022/07/10 00:36:29;;;;;;;9.20;6.15;;;;;;;16.06;100.00;99890.00;1687823;83;21081;-45
2022/07/10 00:38:55;;;;;;;13.35;6.60;;;;;;;16.06;100.00;99886.08;1696697;83;21026;-45
2022/07/10 00:41:24;;;;;;;10.28;6.45;;;;;;;16.05;100.00;99885.70;1688197;83;20987;-45
2022/07/10 00:43:53;;;;;;;11.93;6.90;;;;;;;16.03;100.00;99887.99;1698268;83;20983;-45
2022/07/10 00:46:22;;;;;;;9.30;6.55;;;;;;;16.01;100.00;99888.05;1669667;84;20965;-46
2022/07/10 00:48:49;;;;;;;13.72;7.75;;;;;;;16.02;100.00;99881.91;1662503;84;21522;-45
2022/07/10 00:51:18;;;;;;;13.45;7.10;;;;;;;16.00;100.00;99877.23;1692100;83;21042;-46
2022/07/10 00:53:46;;;;;;;8.73;6.60;;;;;;;16.01;100.00;99875.48;1693945;83;21588;-45
2022/07/10 00:56:16;;;;;;;8.08;6.15;;;;;;;16.02;100.00;99870.64;1689023;83;21039;-45
2022/07/10 00:58:44;;;;;;;9.60;6.90;;;;;;;15.99;100.00;99866.41;1681454;84;20956;-46
2022/07/10 01:01:10;;;;;;;11.55;7.10;;;;;;;15.98;100.00;99868.64;1673084;84;21751;-44
2022/07/10 01:03:38;;;;;;;9.05;7.08;;;;;;;15.96;100.00;99870.48;1673431;84;20989;-45
2022/07/10 01:06:05;;;;;;;11.78;7.15;;;;;;;15.93;100.00;99877.16;1672345;84;21594;-44
2022/07/10 01:08:32;;;;;;;19.90;6.60;;;;;;;15.90;100.00;99878.63;1674470;84;21513;-45
2022/07/10 01:10:59;;;;;;;14.18;6.90;;;;;;;15.87;100.00;99878.27;1674142;84;21012;-44
2022/07/10 01:13:26;;;;;;;9.13;6.90;;;;;;;15.82;100.00;99877.66;1669665;84;21771;-45
2022/07/10 01:15:53;;;;;;;9.85;7.15;;;;;;;15.79;100.00;99871.30;1668036;84;21072;-44
2022/07/10 01:18:20;;;;;;;8.18;7.47;;;;;;;15.74;100.00;99864.99;1670258;84;20922;-45
2022/07/10 01:20:51;;;;;;;10.45;7.55;;;;;;;15.72;100.00;99864.70;1667965;84;21024;-44
2022/07/10 01:23:18;;;;;;;8.43;7.35;;;;;;;15.69;100.00;99872.20;1669569;84;21047;-46
2022/07/10 01:25:45;;;;;;;9.98;6.75;;;;;;;15.66;100.00;99865.84;1640779;84;21302;-45
2022/07/10 01:28:12;;;;;;;11.12;7.35;;;;;;;15.62;100.00;99866.91;1671283;84;21035;-45
2022/07/10 01:30:39;;;;;;;8.38;7.53;;;;;;;15.61;100.00;99866.53;1672495;84;20964;-45
2022/07/10 01:33:05;;;;;;;14.95;7.92;;;;;;;15.61;100.00;99866.53;1673266;84;20975;-45
2022/07/10 01:35:32;;;;;;;15.35;8.03;;;;;;;15.59;100.00;99865.29;1642434;85;21090;-45
2022/07/10 01:37:59;;;;;;;21.95;7.70;;;;;;;15.58;100.00;99860.16;1668003;85;21274;-45
2022/07/10 01:40:27;;;;;;;21.80;7.97;;;;;;;15.58;100.00;99864.08;1645952;85;21034;-45
2022/07/10 01:42:53;;;;;;;14.47;8.33;;;;;;;15.60;100.00;99863.54;1643803;86;20971;-45
2022/07/10 01:45:20;;;;;;;9.80;8.58;;;;;;;15.63;100.00;99867.30;1669773;85;20937;-44
2022/07/10 01:47:49;;;;;;;9.48;7.80;;;;;;;15.65;100.00;99867.59;1673601;84;21146;-45
2022/07/10 01:50:15;;;;;;;13.00;7.92;;;;;;;15.68;100.00;99871.83;1671010;84;21270;-45
2022/07/10 01:52:43;;;;;;;9.28;8.33;;;;;;;15.68;100.00;99868.39;1672858;85;21521;-45
2022/07/10 01:55:10;;;;;;;16.23;8.35;;;;;;;15.69;100.00;99866.98;1669498;85;21000;-45
2022/07/10 01:57:36;;;;;;;11.38;7.92;;;;;;;15.73;100.00;99865.09;1637475;86;21103;-45
2022/07/10 02:00:04;;;;;;;20.50;8.75;;;;;;;15.76;100.00;99863.63;1678769;83;21038;-45
2022/07/10 02:02:32;;;;;;;10.68;8.58;;;;;;;15.77;100.00;99862.23;1695150;83;21238;-45
2022/07/10 02:04:59;;;;;;;16.95;8.70;;;;;;;15.76;100.00;99854.50;1689545;83;21020;-46
2022/07/10 02:07:26;;;;;;;12.05;9.00;;;;;;;15.76;100.00;99855.80;1693733;84;20967;-44
2022/07/10 02:09:53;;;;;;;18.10;9.90;;;;;;;15.78;100.00;99860.00;1674836;83;20956;-44
2022/07/10 02:12:20;;;;;;;11.38;10.20;;;;;;;15.80;100.00;99868.62;1696179;83;21076;-45
2022/07/10 02:14:47;;;;;;;13.95;10.38;;;;;;;15.83;100.00;99866.78;1688935;83;21131;-45
2022/07/10 02:17:15;;;;;;;15.83;10.55;;;;;;;15.86;100.00;99865.32;1687605;83;20976;-45
2022/07/10 02:19:42;;;;;;;19.70;11.68;;;;;;;15.89;100.00;99861.28;1679959;84;21010;-45
2022/07/10 02:22:09;;;;;;;12.82;10.55;;;;;;;15.91;100.00;99855.52;1693148;83;20996;-45
2022/07/10 02:24:35;;;;;;;14.18;10.63;;;;;;;15.93;100.00;99857.59;1683009;84;20979;-45
2022/07/10 02:27:04;;;;;;;12.85;10.03;;;;;;;15.97;100.00;99857.81;1653156;83;22052;-44
2022/07/10 02:29:31;;;;;;;15.10;9.68;;;;;;;16.01;100.00;99850.20;1693881;83;21612;-45
2022/07/10 02:31:58;;;;;;;13.80;9.53;;;;;;;16.07;100.00;99838.63;1694837;83;20995;-44
2022/07/10 02:34:25;;;;;;;15.95;8.80;;;;;;;16.12;100.00;99845.75;1688404;83;21006;-45
2022/07/10 02:36:52;;;;;;;11.00;8.15;;;;;;;16.16;100.00;99845.14;1689071;83;21011;-45
2022/07/10 02:39:19;;;;;;;13.35;7.92;;;;;;;16.17;100.00;99844.22;1696257;83;21255;-44
2022/07/10 02:41:45;;;;;;;10.50;8.43;;;;;;;16.19;100.00;99845.84;1700496;83;21555;-44
2022/07/10 02:44:12;;;;;;;14.63;8.38;;;;;;;16.22;100.00;99850.04;1702506;83;21447;-45
2022/07/10 02:46:40;;;;;;;10.78;8.20;;;;;;;16.27;100.00;99852.42;1687492;83;20972;-45
2022/07/10 02:49:07;;;;;;;12.73;8.68;;;;;;;16.31;100.00;99861.33;1693016;84;21006;-50
2022/07/10 02:51:34;;;;;;;15.18;8.65;;;;;;;16.38;100.00;99857.91;1698990;83;21128;-44
2022/07/10 02:54:00;;;;;;;9.43;8.40;;;;;;;16.47;100.00;99853.53;1697906;82;21036;-45
2022/07/10 02:56:27;;;;;;;12.15;8.55;;;;;;;16.54;100.00;99853.20;1690771;84;21018;-45
2022/07/10 02:58:55;;;;;;;13.75;7.90;;;;;;;16.60;100.00;99843.28;1693329;83;20956;-45
2022/07/10 03:01:22;;;;;;;9.60;7.62;;;;;;;16.68;100.00;99842.02;1662911;83;22168;-44
2022/07/10 03:03:49;;;;;;;12.05;7.97;;;;;;;16.74;100.00;99841.67;1693270;83;21158;-44
2022/07/10 03:06:15;;;;;;;11.57;7.10;;;;;;;16.79;100.00;99844.88;1694524;84;21509;-46
2022/07/10 03:08:42;;;;;;;11.12;7.72;;;;;;;16.84;100.00;99839.41;1682993;83;21031;-45
2022/07/10 03:11:09;;;;;;;8.68;7.47;;;;;;;16.86;100.00;99838.41;1690056;82;20972;-44
2022/07/10 03:13:36;;;;;;;9.48;7.55;;;;;;;16.89;100.00;99834.33;1696434;83;21003;-45
2022/07/10 03:16:04;;;;;;;8.90;6.97;;;;;;;16.92;100.00;99834.15;1694400;83;21499;-45
2022/07/10 03:18:30;;;;;;;14.93;7.37;;;;;;;16.96;100.00;99834.84;1689559;83;21019;-44
2022/07/10 03:20:57;;;;;;;8.40;6.92;;;;;;;17.00;100.00;99832.91;1692232;83;21027;-45
2022/07/10 03:23:24;;;;;;;14.30;7.35;;;;;;;17.03;100.00;99833.59;1689022;83;21435;-45
2022/07/10 03:25:50;;;;;;;9.18;6.45;;;;;;;17.05;100.00;99833.48;1687214;83;21002;-44
2022/07/10 03:28:19;;;;;;;11.22;7.17;;;;;;;17.07;100.00;99825.95;1680282;83;21174;-45
2022/07/10 03:30:46;;;;;;;7.72;6.72;;;;;;;17.11;100.00;99829.70;1690391;83;20971;-45
2022/07/10 03:33:13;;;;;;;10.50;6.42;;;;;;;17.13;100.00;99836.99;1690232;83;20967;-45
2022/07/10 03:35:40;;;;;;;13.20;6.70;;;;;;;17.13;100.00;99833.92;1685006;83;20986;-45
2022/07/10 03:38:07;;;;;;;7.03;6.42;;;;;;;17.13;100.00;99827.39;1710856;82;21043;-45
2022/07/10 03:40:34;;;;;;;7.12;6.45;;;;;;;17.12;100.00;99821.78;1689679;82;21215;-45
2022/07/10 03:43:01;;;;;;;7.20;6.10;;;;;;;17.14;100.00;99820.38;1667844;84;21572;-45
2022/07/10 03:45:29;;;;;;;8.13;7.15;;;;;;;17.10;100.00;99809.27;1693335;83;21501;-43
2022/07/10 03:47:55;;;;;;;9.28;7.10;;;;;;;17.06;100.00;99802.05;1691023;83;21588;-45
2022/07/10 03:50:22;;;;;;;11.03;7.15;;;;;;;17.05;100.00;99796.89;1696638;83;21572;-45
2022/07/10 03:52:49;;;;;;;8.30;7.50;;;;;;;17.04;100.00;99798.67;1676317;84;21266;-45
2022/07/10 03:55:16;;;;;;;9.78;7.35;;;;;;;17.06;100.00;99798.61;1688133;82;21039;-45
2022/07/10 03:58:02;;;;;;;7.80;7.03;;;;;;;17.06;100.00;99793.38;1679048;83;21054;-45
2022/07/10 04:00:27;;;;;;;13.58;6.72;;;;;;;17.06;100.00;99794.69;1687165;83;21536;-45
2022/07/10 04:03:04;;;;;;;10.70;7.05;;;;;;;17.08;100.00;99792.82;1691178;83;21509;-44
2022/07/10 04:05:31;;;;;;;10.88;7.03;;;;;;;17.07;100.00;99780.69;1690112;83;21241;-46
2022/07/10 04:07:59;;;;;;;7.10;6.47;;;;;;;17.04;100.00;99780.83;1695545;83;21035;-45
2022/07/10 04:10:27;;;;;;;18.98;7.70;;;;;;;17.04;100.00;99783.44;1694107;82;20869;-44
2022/07/10 04:12:54;;;;;;;12.28;6.58;;;;;;;17.00;100.00;99788.47;1696304;83;20995;-45
2022/07/10 04:15:21;;;;;;;23.30;7.08;;;;;;;16.99;100.00;99793.31;1692298;84;21517;-44
2022/07/10 04:17:48;;;;;;;10.35;7.62;;;;;;;17.00;100.00;99788.47;1696195;82;21238;-46
2022/07/10 04:20:16;;;;;;;9.98;7.45;;;;;;;17.03;100.00;99800.91;1698625;83;20981;-45
2022/07/10 04:22:42;;;;;;;12.60;7.42;;;;;;;17.12;100.00;99820.48;1695586;82;21018;-44
2022/07/10 04:25:11;;;;;;;8.43;6.80;;;;;;;17.22;100.00;99829.48;1697653;83;20966;-44
2022/07/10 04:27:39;;;;;;;12.63;7.50;;;;;;;17.31;100.00;99832.52;1687229;83;21026;-45
2022/07/10 04:30:07;;;;;;;10.40;8.15;;;;;;;17.34;100.00;99842.33;1688610;83;21140;-45
2022/07/10 04:32:35;;;;;;;10.23;9.28;;;;;;;17.36;100.00;99843.56;1700094;83;21591;-44
2022/07/10 04:35:01;;;;;;;11.90;9.50;;;;;;;17.43;100.00;99851.44;1693425;83;21585;-44
2022/07/10 04:37:29;;;;;;;18.07;10.78;;;;;;;17.52;100.00;99854.83;1697721;82;21038;-45
2022/07/10 04:39:55;;;;;;;15.08;10.78;;;;;;;17.59;100.00;99857.94;1671404;83;21062;-44
2022/07/10 04:42:22;;;;;;;14.00;10.90;;;;;;;17.66;100.00;99860.57;1696327;83;21824;-45
2022/07/10 04:44:50;;;;;;;14.10;9.58;;;;;;;17.75;100.00;99863.13;1692477;83;21562;-44
2022/07/10 04:47:18;;;;;;;10.15;9.25;;;;;;;17.85;100.00;99871.30;1698870;84;21683;-45
2022/07/10 04:49:45;;;;;;;10.50;8.25;;;;;;;17.92;100.00;99873.09;1697280;83;21042;-45
2022/07/10 04:52:15;;;;;;;12.82;8.53;;;;;;;17.90;100.00;99867.11;1660749;84;21039;-44
2022/07/10 04:54:42;;;;;;;13.60;8.05;;;;;;;17.85;100.00;99867.36;1695701;83;21908;-45
2022/07/10 04:57:09;;;;;;;9.98;8.55;;;;;;;17.81;100.00;99868.48;1697620;83;21524;-45
2022/07/10 04:59:36;;;;;;;12.00;8.78;;;;;;;17.78;100.00;99867.35;1700475;83;20975;-45
2022/07/10 05:02:04;;;;;;;11.18;8.55;;;;;;;17.75;100.00;99868.84;1696925;83;21028;-46
2022/07/10 05:04:31;;;;;;;7.53;6.72;;;;;;;17.74;100.00;99867.98;1687347;83;21088;-45
2022/07/10 05:06:58;;;;;;;6.87;6.28;;;;;;;17.73;100.00;99868.92;1687512;83;21267;-46
2022/07/10 05:09:26;;;;;;;7.17;6.47;;;;;;;17.72;100.00;99872.95;1686858;83;20986;-45
2022/07/10 05:11:53;;;;;;;10.70;5.97;;;;;;;17.71;100.00;99884.35;1672768;85;21005;-45
2022/07/10 05:14:21;;;;;;;7.22;6.50;;;;;;;17.71;100.00;99880.42;1665255;84;21048;-45
2022/07/10 05:16:48;;;;;;;7.33;6.33;;;;;;;17.75;100.00;99881.45;1690151;84;21485;-44
2022/07/10 05:19:15;;;;;;;6.30;5.78;;;;;;;17.84;100.00;99879.25;1693951;83;21226;-44
2022/07/10 05:21:42;;;;;;;7.58;6.15;;;;;;;17.86;100.00;99872.98;1697451;83;20993;-45
2022/07/10 05:24:09;;;;;;;13.28;6.00;;;;;;;17.83;100.00;99864.48;1692914;82;20985;-46
2022/07/10 05:26:37;;;;;;;8.45;6.15;;;;;;;17.86;100.00;99859.06;1693964;82;21145;-45
2022/07/10 05:29:04;;;;;;;10.13;5.95;;;;;;;17.90;100.00;99858.77;1693643;82;21043;-46
2022/07/10 05:31:32;;;;;;;8.55;6.40;;;;;;;17.86;100.00;99856.45;1681554;82;20959;-46
2022/07/10 05:33:59;;;;;;;8.63;5.70;;;;;;;17.87;100.00;99851.58;1696122;82;21008;-45
2022/07/10 05:36:25;;;;;;;10.35;5.72;;;;;;;17.89;100.00;99849.72;1666196;84;21247;-46
2022/07/10 05:38:52;;;;;;;6.58;6.05;;;;;;;17.94;100.00;99848.97;1692068;83;21075;-45
2022/07/10 05:41:19;;;;;;;6.03;5.42;;;;;;;18.00;100.00;99843.36;1694732;82;21006;-45
2022/07/10 05:43:46;;;;;;;9.18;6.47;;;;;;;18.02;100.00;99840.70;1690636;82;21884;-45
2022/07/10 05:46:13;;;;;;;6.35;5.85;;;;;;;18.02;100.00;99832.36;1694798;83;21555;-45
2022/07/10 05:48:40;;;;;;;8.18;6.12;;;;;;;17.98;100.00;99809.06;1660897;84;21060;-44
2022/07/10 05:51:07;;;;;;;6.62;5.85;;;;;;;17.87;100.00;99788.27;1696265;82;21000;-44
2022/07/10 05:53:34;;;;;;;6.80;5.97;;;;;;;17.74;100.00;99777.69;1686994;82;22127;-46
2022/07/10 05:56:02;;;;;;;9.90;6.53;;;;;;;17.70;100.00;99777.50;1686607;83;21056;-45
2022/07/10 05:58:29;;;;;;;8.63;6.42;;;;;;;17.63;100.00;99777.02;1683042;82;21079;-44
2022/07/10 06:00:56;;;;;;;7.17;6.60;;;;;;;17.59;100.00;99778.61;1688739;83;21718;-45
2022/07/10 06:03:24;;;;;;;12.68;7.20;;;;;;;17.61;100.00;99781.98;1669043;84;21020;-44
2022/07/10 06:05:50;;;;;;;10.78;6.55;;;;;;;17.63;100.00;99790.58;1695486;83;21572;-45
2022/07/10 06:08:17;;;;;;;8.80;6.20;;;;;;;17.70;100.00;99801.54;1684105;83;21332;-45
2022/07/10 06:10:44;;;;;;;10.30;6.30;;;;;;;17.75;100.00;99804.72;1693841;82;20995;-45
2022/07/10 06:13:12;;;;;;;13.93;7.15;;;;;;;17.76;100.00;99798.55;1694906;83;21053;-46
2022/07/10 06:15:39;;;;;;;10.18;7.12;;;;;;;17.84;100.00;99786.33;1692797;83;20998;-46
2022/07/10 06:18:06;;;;;;;9.20;7.40;;;;;;;17.88;100.00;99776.05;1666570;83;21616;-45
2022/07/10 06:20:33;;;;;;;11.10;7.70;;;;;;;17.79;100.00;99775.64;1686812;84;21227;-46
2022/07/10 06:23:01;;;;;;;10.13;7.58;;;;;;;17.69;100.00;99774.52;1688979;83;21002;-45
2022/07/10 06:25:29;;;;;;;8.13;7.42;;;;;;;17.71;100.00;99770.51;1651373;84;21045;-46
2022/07/10 06:27:56;;;;;;;13.65;7.95;;;;;;;17.75;100.00;99779.37;1701525;82;21030;-45
2022/07/10 06:30:24;;;;;;;11.85;7.58;;;;;;;17.76;100.00;99778.44;1704651;82;21033;-45
2022/07/10 06:32:50;;;;;;;12.47;7.37;;;;;;;17.87;100.00;99780.42;1667983;84;21892;-45
2022/07/10 06:35:17;;;;;;;11.30;7.33;;;;;;;18.03;100.00;99795.25;1658703;85;21045;-44
2022/07/10 06:37:45;;;;;;;9.88;6.90;;;;;;;18.25;100.00;99789.55;1691948;82;21008;-45
2022/07/10 06:40:14;;;;;;;9.65;6.97;;;;;;;18.47;100.00;99793.02;1696076;82;21000;-45
2022/07/10 06:42:41;;;;;;;11.12;7.47;;;;;;;18.59;100.00;99786.16;1697978;83;21024;-46
2022/07/10 06:45:11;;;;;;;7.95;7.17;;;;;;;18.71;100.00;99781.08;1697740;82;22276;-45
2022/07/10 06:47:55;;;;;;;11.83;6.75;;;;;;;18.92;100.00;99791.51;1685610;83;20970;-46
2022/07/10 06:50:25;;;;;;;10.05;6.25;;;;;;;19.07;100.00;99782.30;1689291;83;20993;-46
2022/07/10 06:52:52;;;;;;;7.37;6.25;;;;;;;19.06;100.00;99780.61;1699314;82;21006;-47
2022/07/10 06:55:20;;;;;;;10.05;7.00;;;;;;;18.96;100.00;99773.32;1704764;83;20955;-46
2022/07/10 06:57:48;;;;;;;8.98;6.67;;;;;;;18.92;100.00;99773.16;1686402;83;21269;-46
2022/07/10 07:00:18;;;;;;;12.58;6.87;;;;;;;18.95;100.00;99772.13;1687598;83;20983;-45
2022/07/10 07:02:45;;;;;;;7.28;6.47;;;;;;;18.92;100.00;99767.05;1691941;83;21023;-46
2022/07/10 07:06:38;;;;;;;8.28;6.42;;;;;;;19.08;100.00;99760.41;1809410;77;22606;-44
2022/07/10 07:09:05;;;;;;;7.62;6.42;;;;;;;19.18;100.00;99757.99;1781475;80;20999;-45
2022/07/10 07:11:32;;;;;;;7.60;7.00;;;;;;;19.22;100.00;99764.26;1783811;80;22136;-45
2022/07/10 07:13:59;;;;;;;8.73;7.03;;;;;;;19.13;100.00;99759.63;1774370;80;20960;-45
2022/07/10 07:16:42;;;;;;;7.45;6.75;;;;;;;19.04;100.00;99761.52;1747994;80;20963;-44
2022/07/10 07:19:17;;;;;;;9.65;6.70;;;;;;;19.10;100.00;99765.08;1783092;80;21498;-46
2022/07/10 07:24:27;;;;;;;8.95;7.78;;;;;;;19.31;100.00;99745.77;1717025;83;21149;-45
2022/07/10 07:26:54;;;;;;;8.13;7.25;;;;;;;19.39;100.00;99752.64;1720008;83;20978;-47
2022/07/10 07:29:21;;;;;;;8.68;7.83;;;;;;;19.51;100.00;99750.98;1745351;81;20992;-44
2022/07/10 07:31:48;;;;;;;8.60;7.30;;;;;;;19.72;100.00;99756.22;1739504;80;21518;-45
2022/07/10 07:34:15;;;;;;;12.18;8.80;;;;;;;19.79;100.00;99759.61;1745665;81;21018;-45
2022/07/10 07:36:42;;;;;;;8.35;7.55;;;;;;;19.93;100.00;99753.44;1739924;80;21203;-45
2022/07/10 07:39:08;;;;;;;13.43;7.53;;;;;;;20.08;100.00;99739.75;1738462;80;21002;-46
2022/07/10 07:41:35;;;;;;;8.28;6.95;;;;;;;20.13;100.00;99744.66;1741713;80;20927;-44
2022/07/10 07:44:03;;;;;;;7.95;7.25;;;;;;;20.04;100.00;99739.57;1748109;81;21033;-44
2022/07/10 07:46:29;;;;;;;8.40;6.65;;;;;;;20.06;100.00;99743.41;1743247;80;20955;-46
2022/07/10 07:48:57;;;;;;;10.08;6.85;;;;;;;20.14;100.00;99753.39;1692564;83;21131;-44
2022/07/10 07:51:23;;;;;;;8.05;6.85;;;;;;;20.06;100.00;99768.37;1716034;81;21000;-45
2022/07/10 07:53:50;;;;;;;9.05;7.10;;;;;;;19.97;100.00;99781.66;1717819;81;20979;-45
2022/07/10 07:56:17;;;;;;;10.35;7.05;;;;;;;19.84;100.00;99774.23;1721383;81;21043;-46
2022/07/10 07:58:44;;;;;;;7.08;6.47;;;;;;;19.77;100.00;99761.50;1694213;84;21007;-45
2022/07/10 08:01:12;;;;;;;7.80;7.00;;;;;;;19.84;100.00;99768.98;1696566;84;21152;-45
2022/07/10 08:03:39;;;;;;;8.70;7.00;;;;;;;19.86;100.00;99777.11;1697653;83;21544;-46
2022/07/10 08:06:06;;;;;;;6.70;6.15;;;;;;;19.88;100.00;99783.58;1715309;82;20977;-44
2022/07/10 08:08:33;;;;;;;6.65;6.08;;;;;;;19.79;100.00;99779.30;1699334;83;21074;-46
2022/07/10 08:11:00;;;;;;;7.20;6.50;;;;;;;19.74;100.00;99777.47;1692129;84;21057;-46
2022/07/10 08:13:29;;;;;;;7.65;6.85;;;;;;;19.73;100.00;99771.84;1695469;83;21280;-45
2022/07/10 08:15:57;;;;;;;10.68;6.40;;;;;;;19.82;100.00;99782.20;1692606;83;20955;-44
2022/07/10 08:18:24;;;;;;;7.25;6.05;;;;;;;19.88;100.00;99774.39;1676949;84;21026;-43
2022/07/10 08:20:50;;;;;;;6.50;6.00;;;;;;;19.89;100.00;99774.27;1698638;83;20967;-43
2022/07/10 08:23:17;;;;;;;7.20;6.47;;;;;;;19.97;100.00;99773.78;1697377;83;21010;-45
2022/07/10 08:25:44;;;;;;;7.92;6.20;;;;;;;20.00;100.00;99773.56;1696742;84;21207;-45
2022/07/10 08:28:11;;;;;;;7.45;6.42;;;;;;;20.03;100.00;99769.41;1697309;83;21016;-44
2022/07/10 08:30:38;;;;;;;11.18;6.60;;;;;;;20.02;100.00;99749.34;1701069;83;20963;-45
2022/07/10 08:33:05;;;;;;;10.90;6.25;;;;;;;19.95;100.00;99733.66;1694120;83;21003;-45
2022/07/10 08:35:33;;;;;;;11.45;6.22;;;;;;;19.82;100.00;99734.94;1693380;83;20987;-44
2022/07/10 08:37:59;;;;;;;7.08;6.50;;;;;;;19.72;100.00;99750.97;1712895;82;22241;-45
2022/07/10 08:40:26;;;;;;;7.08;6.42;;;;;;;19.66;100.00;99762.72;1712236;83;21047;-44
2022/07/10 08:42:54;;;;;;;9.75;8.23;;;;;;;19.57;100.00;99739.23;1708012;83;20937;-45
2022/07/10 08:45:21;;;;;;;8.90;8.08;;;;;;;19.46;100.00;99733.89;1711647;82;20995;-44
2022/07/10 08:47:49;;;;;;;10.55;8.78;;;;;;;19.45;100.00;99757.11;1704447;83;20940;-45
2022/07/10 08:50:23;;;;;;;8.15;7.45;;;;;;;19.53;100.00;99774.03;1703610;83;21188;-45
2022/07/10 08:53:14;;;;;;;8.28;7.45;;;;;;;19.64;100.00;99773.30;1708090;83;20964;-45
2022/07/10 08:55:41;;;;;;;15.35;7.22;;;;;;;19.78;100.00;99769.75;1680246;83;20982;-45
2022/07/10 08:58:09;;;;;;;7.08;6.37;;;;;;;19.94;100.00;99777.94;1709133;83;21034;-45
2022/07/10 09:00:36;;;;;;;9.50;6.42;;;;;;;20.07;100.00;99770.05;1702749;82;21059;-45
2022/07/10 09:03:03;;;;;;;11.88;6.50;;;;;;;20.04;100.00;99771.09;1704870;83;21144;-44
2022/07/10 09:05:30;;;;;;;8.98;6.67;;;;;;;20.00;100.00;99768.31;1707521;83;21023;-45
2022/07/10 09:07:57;;;;;;;9.63;5.83;;;;;;;20.05;100.00;99765.37;1708204;83;21596;-45
2022/07/10 09:10:26;;;;;;;6.50;5.97;;;;;;;20.06;100.00;99759.17;1699369;83;21549;-45
2022/07/10 09:13:04;;;;;;;10.88;6.65;;;;;;;20.03;100.00;99770.72;1696430;83;20952;-45
2022/07/10 09:15:32;;;;;;;6.92;6.33;;;;;;;20.03;100.00;99764.16;1709073;83;21172;-45
2022/07/10 09:18:01;;;;;;;7.10;6.40;;;;;;;20.13;100.00;99755.66;1710166;83;21015;-45
2022/07/10 09:20:40;;;;;;;13.55;6.62;;;;;;;20.16;100.00;99756.75;1702762;83;21556;-45
2022/07/10 09:23:21;;;;;;;8.43;6.12;;;;;;;20.20;100.00;99756.41;1645775;86;21035;-43
2022/07/10 09:25:50;;;;;;;6.92;5.30;;;;;;;20.30;100.00;99751.34;1661188;85;21066;-44
2022/07/10 09:28:21;;;;;;;8.53;5.53;;;;;;;20.37;100.00;99718.91;1675350;84;21240;-44
2022/07/10 09:30:50;;;;;;;7.05;5.50;;;;;;;20.30;100.00;99684.34;1644184;85;21015;-44
2022/07/10 09:33:31;;;;;;;6.53;5.87;;;;;;;20.24;100.00;99679.54;1652202;86;21047;-44
2022/07/10 09:36:13;;;;;;;6.10;5.12;;;;;;;20.27;100.00;99695.08;1669991;85;21526;-43
2022/07/10 09:38:50;;;;;;;11.57;5.28;;;;;;;20.31;100.00;99728.06;1674616;85;20996;-43
2022/07/10 09:41:27;;;;;;;8.90;5.58;;;;;;;20.50;100.00;99749.10;1673113;85;21554;-44
2022/07/10 09:44:03;;;;;;;6.10;5.50;;;;;;;20.63;100.00;99751.23;1671708;85;20952;-43
2022/07/10 09:46:36;;;;;;;6.10;5.70;;;;;;;20.80;100.00;99753.12;1674189;84;20984;-44
2022/07/10 09:49:11;;;;;;;6.40;5.65;;;;;;;20.93;100.00;99755.24;1656726;85;20987;-43
2022/07/10 09:51:45;;;;;;;9.35;5.00;;;;;;;21.00;100.00;99765.30;1670115;85;20991;-44
2022/07/10 09:54:12;;;;;;;6.03;5.53;;;;;;;21.05;100.00;99774.55;1645494;86;21179;-44
2022/07/10 09:56:46;;;;;;;6.90;5.75;;;;;;;21.16;100.00;99775.53;1650770;85;21039;-45
2022/07/10 09:59:18;;;;;;;7.90;6.25;;;;;;;21.26;100.00;99773.92;1643703;86;20973;-44
2022/07/10 10:01:50;;;;;;;7.05;5.53;;;;;;;21.42;100.00;99776.70;1663030;85;21038;-45
2022/07/10 10:04:20;;;;;;;10.60;6.00;;;;;;;21.53;100.00;99782.02;1665982;85;20964;-44
2022/07/10 10:06:56;;;;;;;6.20;5.58;;;;;;;21.53;100.00;99791.23;1704674;83;21257;-45
2022/07/10 10:09:36;;;;;;;10.70;6.37;;;;;;;21.50;100.00;99787.03;1674277;85;21077;-43
2022/07/10 10:12:13;;;;;;;12.68;5.85;;;;;;;21.58;100.00;99785.60;1680909;85;20964;-42
2022/07/10 10:14:40;;;;;;;11.33;5.85;;;;;;;21.63;100.00;99785.63;1668985;84;22070;-44
2022/07/10 10:17:07;;;;;;;8.65;6.22;;;;;;;21.66;100.00;99783.28;1680163;85;21102;-44
2022/07/10 10:22:20;;;;;;;10.77;5.60;;;;;;;21.77;100.00;99785.92;1697865;83;20947;-44
2022/07/10 10:24:48;;;;;;;7.72;5.70;;;;;;;21.78;100.00;99788.91;1700508;83;21435;-44
2022/07/10 10:27:15;;;;;;;7.62;5.65;;;;;;;21.69;100.00;99792.27;1701406;83;20952;-44
2022/07/10 10:29:41;;;;;;;7.83;5.53;;;;;;;21.62;100.00;99797.61;1702514;83;21371;-44
2022/07/10 10:32:09;;;;;;;8.73;5.92;;;;;;;21.59;100.00;99807.02;1699228;83;21115;-44
2022/07/10 10:34:42;;;;;;;14.55;6.08;;;;;;;21.54;100.00;99806.90;1706363;83;21013;-44
2022/07/10 10:37:40;;;;;;;7.87;5.60;;;;;;;21.45;100.00;99806.28;1702740;83;21027;-45
2022/07/10 10:40:05;;;;;;;8.43;6.00;;;;;;;21.33;100.00;99811.13;1696643;83;21505;-45
2022/07/10 10:42:43;;;;;;;7.75;6.22;;;;;;;21.14;100.00;99802.44;1702323;83;21565;-45
2022/07/10 10:45:35;;;;;;;10.13;6.50;;;;;;;20.94;100.00;99796.83;1705261;83;21233;-44
2022/07/10 10:48:05;;;;;;;8.18;6.40;;;;;;;20.75;100.00;99801.23;1708188;82;21022;-45
2022/07/10 10:50:48;;;;;;;7.83;6.95;;;;;;;20.55;100.00;99796.09;1707942;83;20940;-45
2022/07/10 10:53:26;;;;;;;8.28;6.53;;;;;;;20.40;100.00;99804.10;1688892;84;20987;-44
2022/07/10 10:56:10;;;;;;;9.03;7.05;;;;;;;20.24;100.00;99798.62;1701575;83;20972;-44
2022/07/10 10:58:44;;;;;;;8.70;7.45;;;;;;;20.16;100.00;99809.29;1689466;83;21000;-45
2022/07/10 11:01:27;;;;;;;10.25;7.58;;;;;;;20.14;100.00;99807.25;1678322;84;20979;-45
2022/07/10 11:04:14;;;;;;;13.13;7.92;;;;;;;20.09;100.00;99808.87;1667003;84;21477;-44
2022/07/10 11:06:50;;;;;;;8.70;7.90;;;;;;;20.08;100.00;99806.73;1666355;85;20901;-44
2022/07/10 11:09:31;;;;;;;10.58;7.55;;;;;;;20.16;100.00;99800.09;1693250;83;21083;-46
2022/07/10 11:12:09;;;;;;;9.80;7.10;;;;;;;20.26;100.00;99789.80;1700246;83;21864;-47
2022/07/10 11:14:42;;;;;;;8.23;7.45;;;;;;;20.32;100.00;99770.47;1696072;83;20982;-46
2022/07/10 11:17:11;;;;;;;9.45;7.10;;;;;;;20.36;100.00;99748.77;1708309;82;21011;-47
2022/07/10 11:19:40;;;;;;;8.03;7.08;;;;;;;20.42;100.00;99736.99;1712578;83;20964;-45
2022/07/10 11:22:33;;;;;;;8.15;7.40;;;;;;;20.42;100.00;99723.36;1698300;83;21658;-45
2022/07/10 11:25:42;;;;;;;9.25;6.78;;;;;;;20.44;100.00;99718.01;1705481;82;21902;-45
2022/07/10 11:28:09;;;;;;;8.10;7.25;;;;;;;20.45;100.00;99703.42;1706300;82;21011;-44
2022/07/10 11:30:53;;;;;;;8.35;7.10;;;;;;;20.53;100.00;99701.56;1698132;83;21042;-44
2022/07/10 11:33:22;;;;;;;9.83;7.17;;;;;;;20.61;100.00;99703.19;1705759;83;20992;-46
2022/07/10 11:35:51;;;;;;;7.67;6.67;;;;;;;20.71;100.00;99707.27;1705215;83;21003;-44
2022/07/10 11:38:22;;;;;;;8.75;7.20;;;;;;;20.85;100.00;99709.41;1673407;84;21078;-46